Time;durP1;ratioP1;P1;durP2;ratioP2;P2;SDS_P1;SDS_P2;PMS_P1;PMS_P2;Temp;Humidity;BMP_temperature;BMP_pressure;BME280_temperature;BME280_humidity;BME280_pressure;Samples;Min_cycle;Max_cycle;Signal;HPM_P1;HPM_P2
2023/08/17 00:00:17;;;;;;;13.27;12.07;;;;;;;17.62;100.00;99586.16;5100769;28;20201;-84
2023/08/17 00:02:44;;;;;;;13.33;12.33;;;;;;;17.56;100.00;99577.16;5059646;28;20670;-83
2023/08/17 00:05:12;;;;;;;13.50;12.47;;;;;;;17.55;100.00;99575.53;5095787;28;20256;-83
2023/08/17 00:07:39;;;;;;;12.37;11.47;;;;;;;17.53;100.00;99570.41;5103918;28;20195;-84
2023/08/17 00:10:07;;;;;;;13.43;12.43;;;;;;;17.51;100.00;99559.00;5099192;28;20620;-84
2023/08/17 00:12:34;;;;;;;13.97;12.67;;;;;;;17.47;100.00;99573.34;5090987;28;20707;-82
2023/08/17 00:15:02;;;;;;;12.97;12.07;;;;;;;17.45;100.00;99568.19;5076153;28;20293;-83
2023/08/17 00:17:30;;;;;;;13.83;12.80;;;;;;;17.42;100.00;99574.13;5092732;28;20215;-85
2023/08/17 00:19:58;;;;;;;13.27;12.07;;;;;;;17.42;100.00;99573.31;5093608;28;20202;-83
2023/08/17 00:22:25;;;;;;;13.37;12.27;;;;;;;17.43;100.00;99569.53;5051219;28;20201;-84
2023/08/17 00:24:53;;;;;;;13.90;12.70;;;;;;;17.41;100.00;99564.38;5085594;28;20214;-84
2023/08/17 00:27:20;;;;;;;13.83;12.57;;;;;;;17.38;100.00;99564.94;5073576;28;20195;-83
2023/08/17 00:29:47;;;;;;;13.30;12.20;;;;;;;17.33;100.00;99566.78;5079095;28;20199;-84
2023/08/17 00:32:15;;;;;;;13.83;12.63;;;;;;;17.34;100.00;99571.94;5090515;28;20235;-82
2023/08/17 00:34:44;;;;;;;13.50;12.40;;;;;;;17.31;100.00;99583.28;5074277;28;20272;-83
2023/08/17 00:37:13;;;;;;;13.77;12.67;;;;;;;17.32;100.00;99584.94;5087567;28;20247;-82
2023/08/17 00:39:40;;;;;;;13.27;12.27;;;;;;;17.30;100.00;99581.69;5086491;28;20206;-83
2023/08/17 00:42:08;;;;;;;13.63;12.53;;;;;;;17.29;100.00;99581.94;5090150;28;20220;-84
2023/08/17 00:44:35;;;;;;;13.87;12.67;;;;;;;17.25;100.00;99583.56;5087478;28;20669;-84
2023/08/17 00:47:04;;;;;;;13.10;12.10;;;;;;;17.19;100.00;99585.41;5088596;28;20206;-84
2023/08/17 00:49:34;;;;;;;14.20;13.10;;;;;;;17.16;100.00;99581.34;5086264;28;20304;-83
2023/08/17 00:52:04;;;;;;;14.30;13.20;;;;;;;17.15;100.00;99576.19;5067609;28;20226;-83
2023/08/17 00:54:32;;;;;;;13.90;12.60;;;;;;;17.13;100.00;99583.75;5090639;28;20236;-86
2023/08/17 00:57:00;;;;;;;13.90;12.80;;;;;;;17.13;100.00;99583.75;5063852;28;20407;-86
2023/08/17 00:59:31;;;;;;;13.93;12.80;;;;;;;17.12;100.00;99579.44;5064151;28;20231;-88
2023/08/17 01:02:03;;;;;;;13.23;12.13;;;;;;;17.13;100.00;99581.03;5064655;28;20209;-81
2023/08/17 01:04:32;;;;;;;13.53;12.33;;;;;;;17.13;100.00;99581.88;5079723;28;20194;-82
2023/08/17 01:06:59;;;;;;;13.43;12.33;;;;;;;17.13;100.00;99587.28;5088877;28;20689;-83
2023/08/17 01:09:27;;;;;;;13.43;12.43;;;;;;;17.08;100.00;99595.38;5099752;28;20189;-82
2023/08/17 01:12:08;;;;;;;13.43;12.03;;;;;;;17.00;100.00;99601.28;5094910;28;20241;-82
2023/08/17 01:14:39;;;;;;;13.40;12.40;;;;;;;16.95;100.00;99593.13;5095206;28;20185;-82
2023/08/17 01:17:12;;;;;;;13.00;11.97;;;;;;;16.92;100.00;99600.97;5106654;28;20235;-82
2023/08/17 01:19:41;;;;;;;12.80;11.70;;;;;;;16.89;100.00;99596.88;5098180;28;20223;-83
2023/08/17 01:22:11;;;;;;;13.77;12.63;;;;;;;16.83;100.00;99611.47;5092313;28;20606;-84
2023/08/17 01:24:39;;;;;;;13.33;12.23;;;;;;;16.80;100.00;99608.50;5058287;28;20672;-84
2023/08/17 01:27:07;;;;;;;13.60;12.27;;;;;;;16.78;100.00;99600.63;5077196;28;20716;-84
2023/08/17 01:29:35;;;;;;;12.97;11.80;;;;;;;16.77;100.00;99592.75;5091303;28;20247;-85
2023/08/17 01:32:14;;;;;;;12.93;11.93;;;;;;;16.71;100.00;99592.72;5075424;28;20271;-85
2023/08/17 01:35:02;;;;;;;12.93;11.93;;;;;;;16.69;100.00;99597.59;5074674;28;20280;-83
2023/08/17 01:37:31;;;;;;;12.30;11.33;;;;;;;16.66;100.00;99589.97;5074503;28;20221;-83
2023/08/17 01:40:00;;;;;;;13.43;12.30;;;;;;;16.69;100.00;99588.66;5061879;28;20664;-85
2023/08/17 01:42:28;;;;;;;12.70;11.70;;;;;;;16.67;100.00;99596.19;5086792;28;20199;-83
2023/08/17 01:44:56;;;;;;;13.53;12.40;;;;;;;16.67;100.00;99598.91;5073972;28;20223;-83
2023/08/17 01:47:24;;;;;;;12.37;11.47;;;;;;;16.65;100.00;99603.78;5090868;28;20263;-83
2023/08/17 01:49:53;;;;;;;13.63;12.57;;;;;;;16.62;100.00;99601.56;5090628;28;20207;-83
2023/08/17 01:52:21;;;;;;;12.77;11.77;;;;;;;16.66;100.00;99602.69;5091881;28;20207;-83
2023/08/17 01:54:48;;;;;;;14.07;12.77;;;;;;;16.62;100.00;99606.97;5090997;28;20209;-84
2023/08/17 01:57:15;;;;;;;12.83;11.83;;;;;;;16.58;100.00;99597.75;5057859;28;20299;-84
2023/08/17 01:59:43;;;;;;;12.37;11.43;;;;;;;16.58;100.00;99590.47;5091070;28;20209;-83
2023/08/17 02:02:14;;;;;;;12.30;11.40;;;;;;;16.56;100.00;99594.47;5076988;28;20200;-83
2023/08/17 02:04:41;;;;;;;13.10;12.10;;;;;;;16.52;100.00;99586.06;5074446;28;20200;-84
2023/08/17 02:07:10;;;;;;;12.53;11.53;;;;;;;16.52;100.00;99594.16;5089759;28;20196;-83
2023/08/17 02:09:39;;;;;;;13.20;12.20;;;;;;;16.49;100.00;99602.81;5090824;28;20190;-83
2023/08/17 02:12:08;;;;;;;13.20;12.10;;;;;;;16.47;100.00;99604.16;5073813;28;20279;-85
2023/08/17 02:14:36;;;;;;;12.77;11.73;;;;;;;16.48;100.00;99601.16;5055532;28;20223;-84
2023/08/17 02:17:05;;;;;;;12.30;11.30;;;;;;;16.49;100.00;99591.16;5085453;28;20307;-84
2023/08/17 02:19:32;;;;;;;12.50;11.60;;;;;;;16.46;100.00;99589.81;5093413;28;20208;-84
2023/08/17 02:22:02;;;;;;;13.80;12.47;;;;;;;16.49;100.00;99593.88;5087680;28;20197;-85
2023/08/17 02:24:29;;;;;;;13.47;12.37;;;;;;;16.50;100.00;99587.41;5091574;28;20283;-84
2023/08/17 02:26:57;;;;;;;14.13;12.93;;;;;;;16.50;100.00;99587.41;5094711;28;20196;-84
2023/08/17 02:29:24;;;;;;;14.33;13.20;;;;;;;16.48;100.00;99582.25;5079739;28;20206;-85
2023/08/17 02:31:52;;;;;;;13.20;12.20;;;;;;;16.48;100.00;99576.84;5092553;28;20192;-84
2023/08/17 02:34:19;;;;;;;13.70;12.50;;;;;;;16.49;100.00;99580.34;5088481;28;20196;-85
2023/08/17 02:36:47;;;;;;;13.90;12.80;;;;;;;16.53;100.00;99578.75;5089263;28;20242;-84
2023/08/17 02:39:14;;;;;;;13.73;12.43;;;;;;;16.54;100.00;99577.69;5077865;28;20205;-84
2023/08/17 02:41:44;;;;;;;13.73;12.63;;;;;;;16.56;100.00;99584.44;5083533;28;20205;-85
2023/08/17 02:44:13;;;;;;;13.93;12.77;;;;;;;16.57;100.00;99579.88;5094748;28;20203;-83
2023/08/17 02:46:41;;;;;;;13.67;12.57;;;;;;;16.57;100.00;99591.50;5086697;28;20687;-84
2023/08/17 02:49:09;;;;;;;13.47;12.47;;;;;;;16.54;100.00;99594.72;5085133;28;20188;-85
2023/08/17 02:51:37;;;;;;;12.77;11.77;;;;;;;16.53;100.00;99601.22;5099584;28;20632;-82
2023/08/17 02:54:05;;;;;;;14.20;13.03;;;;;;;16.50;100.00;99598.22;5097887;28;20250;-82
2023/08/17 02:56:32;;;;;;;13.77;12.57;;;;;;;16.47;100.00;99601.44;5101558;28;20207;-83
2023/08/17 02:59:00;;;;;;;13.30;12.20;;;;;;;16.45;100.00;99609.00;5099642;28;20570;-84
2023/08/17 03:01:29;;;;;;;14.20;13.03;;;;;;;16.44;100.00;99604.66;5096366;28;20196;-82
2023/08/17 03:03:56;;;;;;;13.13;12.13;;;;;;;16.43;100.00;99600.31;5093607;28;20261;-83
2023/08/17 03:06:23;;;;;;;13.57;12.47;;;;;;;16.41;100.00;99597.88;5102954;28;20254;-82
2023/08/17 03:08:52;;;;;;;13.40;12.40;;;;;;;16.42;100.00;99596.00;5087089;28;20196;-81
2023/08/17 03:11:21;;;;;;;13.40;12.37;;;;;;;16.39;100.00;99597.31;5100873;27;20297;-83
2023/08/17 03:13:48;;;;;;;14.13;13.03;;;;;;;16.38;100.00;99598.38;5077783;28;20193;-82
2023/08/17 03:16:15;;;;;;;13.80;12.70;;;;;;;16.38;100.00;99592.19;5095767;28;20224;-82
2023/08/17 03:18:44;;;;;;;14.60;13.50;;;;;;;16.41;100.00;99597.88;5087643;28;20306;-82
2023/08/17 03:21:12;;;;;;;13.73;12.53;;;;;;;16.42;100.00;99596.00;5066746;28;20672;-81
2023/08/17 03:23:40;;;;;;;14.03;12.83;;;;;;;16.41;100.00;99591.66;5094267;28;20220;-86
2023/08/17 03:26:09;;;;;;;14.40;13.30;;;;;;;16.40;100.00;99585.44;5095285;28;20204;-85
2023/08/17 03:28:37;;;;;;;13.77;12.67;;;;;;;16.40;100.00;99590.84;5092504;28;20229;-85
2023/08/17 03:31:06;;;;;;;14.37;13.27;;;;;;;16.40;100.00;99581.91;5075627;28;20209;-82
2023/08/17 03:33:33;;;;;;;14.90;13.60;;;;;;;16.34;100.00;99586.44;5085155;28;20275;-81
2023/08/17 03:36:02;;;;;;;14.23;12.93;;;;;;;16.35;100.00;99585.38;5088497;28;20280;-85
2023/08/17 03:38:29;;;;;;;14.20;13.10;;;;;;;16.33;100.00;99587.53;5088182;28;20358;-81
2023/08/17 03:40:57;;;;;;;13.30;12.30;;;;;;;16.33;100.00;99590.22;5090160;28;20303;-81
2023/08/17 03:43:26;;;;;;;14.70;13.57;;;;;;;16.32;100.00;99590.50;5096512;28;20246;-82
2023/08/17 03:45:54;;;;;;;14.10;12.93;;;;;;;16.29;100.00;99581.81;5093994;28;20741;-83
2023/08/17 03:48:22;;;;;;;14.40;13.20;;;;;;;16.26;100.00;99586.94;5092842;28;20200;-86
2023/08/17 03:50:52;;;;;;;15.10;13.70;;;;;;;16.25;100.00;99580.72;5095816;28;20204;-86
2023/08/17 03:53:20;;;;;;;13.93;12.83;;;;;;;16.23;100.00;99582.88;5076513;28;20363;-85
2023/08/17 03:55:50;;;;;;;15.20;13.90;;;;;;;16.22;100.00;99583.94;5059017;28;20209;-93
2023/08/17 03:58:18;;;;;;;13.97;12.87;;;;;;;16.17;100.00;99591.19;5077479;28;20245;-93
2023/08/17 04:00:52;;;;;;;14.27;13.07;;;;;;;16.11;100.00;99589.50;5071891;28;20206;-92
2023/08/17 04:03:27;;;;;;;13.37;12.37;;;;;;;16.09;100.00;99595.19;5058849;28;20213;-91
2023/08/17 04:05:55;;;;;;;14.10;13.10;;;;;;;16.10;100.00;99595.97;5058514;28;20201;-92
2023/08/17 04:08:24;;;;;;;14.10;13.00;;;;;;;16.07;100.00;99600.00;5054865;28;20206;-93
2023/08/17 04:10:52;;;;;;;14.67;13.47;;;;;;;16.11;100.00;99605.72;5062823;28;20296;-93
2023/08/17 04:13:19;;;;;;;15.00;13.77;;;;;;;16.11;100.00;99600.31;5058481;28;20292;-92
2023/08/17 04:15:47;;;;;;;15.03;13.93;;;;;;;16.15;100.00;99604.94;5059871;28;20204;-93
2023/08/17 04:18:14;;;;;;;14.63;13.33;;;;;;;16.18;100.00;99611.75;5060701;28;20216;-92
2023/08/17 04:20:42;;;;;;;15.33;14.00;;;;;;;16.20;100.00;99613.09;5057056;28;20224;-93
2023/08/17 04:23:12;;;;;;;14.83;13.63;;;;;;;16.24;100.00;99610.69;5074683;28;20204;-92
2023/08/17 04:25:41;;;;;;;14.97;13.73;;;;;;;16.28;100.00;99615.31;5068347;28;20215;-92
2023/08/17 04:28:10;;;;;;;15.07;13.87;;;;;;;16.31;100.00;99614.00;5071795;28;20203;-93
2023/08/17 04:30:40;;;;;;;14.23;13.03;;;;;;;16.37;100.00;99621.09;5074242;28;20271;-93
2023/08/17 04:33:07;;;;;;;15.47;14.07;;;;;;;16.45;100.00;99620.63;5093634;28;20232;-92
2023/08/17 04:35:35;;;;;;;15.80;14.50;;;;;;;16.53;100.00;99614.72;5091285;28;20237;-93
2023/08/17 04:38:03;;;;;;;15.33;14.07;;;;;;;16.64;100.00;99613.78;5075473;28;20276;-93
2023/08/17 04:40:31;;;;;;;15.20;13.90;;;;;;;16.79;100.00;99621.19;5070963;28;20657;-91
2023/08/17 04:42:59;;;;;;;14.93;13.73;;;;;;;16.91;100.00;99627.22;5072683;28;20255;-94
2023/08/17 04:45:27;;;;;;;15.10;13.90;;;;;;;17.02;100.00;99620.81;5084289;28;20315;-93
2023/08/17 04:47:55;;;;;;;14.63;13.53;;;;;;;17.14;100.00;99621.41;5069036;28;20651;-93
2023/08/17 04:50:23;;;;;;;15.47;14.23;;;;;;;17.24;100.00;99617.94;5064576;28;20293;-92
2023/08/17 04:52:52;;;;;;;14.87;13.67;;;;;;;17.34;100.00;99611.75;5065005;28;20204;-92
2023/08/17 04:55:19;;;;;;;14.43;13.23;;;;;;;17.48;100.00;99607.47;5066232;28;20231;-93
2023/08/17 04:57:48;;;;;;;15.33;14.07;;;;;;;17.64;100.00;99606.47;5063878;28;20225;-93
2023/08/17 05:00:16;;;;;;;14.83;13.63;;;;;;;17.78;100.00;99613.03;5083556;28;20224;-92
2023/08/17 05:02:43;;;;;;;14.63;13.53;;;;;;;17.92;100.00;99606.00;5076737;28;20230;-92
2023/08/17 05:05:12;;;;;;;14.83;13.60;;;;;;;18.06;100.00;99602.81;5085936;28;20647;-91
2023/08/17 05:07:40;;;;;;;14.13;13.13;;;;;;;18.18;100.00;99603.34;5064187;28;20192;-93
2023/08/17 05:10:08;;;;;;;14.20;13.10;;;;;;;18.29;100.00;99603.06;5054905;28;20259;-93
2023/08/17 05:12:39;;;;;;;13.63;12.63;;;;;;;18.42;100.00;99599.03;5059306;28;20201;-81
2023/08/17 05:15:10;;;;;;;13.77;12.63;;;;;;;18.57;100.00;99598.25;5108753;28;20197;-81
2023/08/17 05:17:39;;;;;;;13.00;11.97;;;;;;;18.71;100.00;99602.03;5096404;28;20218;-81
2023/08/17 05:20:12;;;;;;;13.23;12.17;;;;;;;18.82;100.00;99609.88;5100534;28;20209;-81
2023/08/17 05:22:40;;;;;;;13.67;12.37;;;;;;;18.94;100.00;99609.59;5092111;28;20194;-82
2023/08/17 05:25:08;;;;;;;12.50;11.40;;;;;;;19.05;100.00;99603.03;5075122;28;20301;-81
2023/08/17 05:27:37;;;;;;;12.20;11.30;;;;;;;19.17;100.00;99610.91;5062648;28;20204;-80
2023/08/17 05:30:05;;;;;;;12.60;11.50;;;;;;;19.29;100.00;99605.94;5092226;28;20586;-80
2023/08/17 05:32:33;;;;;;;13.47;12.27;;;;;;;19.40;100.00;99598.59;5111645;28;20234;-79
2023/08/17 05:35:00;;;;;;;13.00;11.93;;;;;;;19.52;100.00;99599.91;5083133;28;20200;-82
2023/08/17 05:37:28;;;;;;;12.47;11.47;;;;;;;19.64;100.00;99602.31;5091580;28;20225;-81
2023/08/17 05:39:56;;;;;;;12.10;11.17;;;;;;;19.74;100.00;99603.06;5098579;28;20207;-81
2023/08/17 05:42:25;;;;;;;12.33;11.33;;;;;;;19.88;100.00;99616.84;5091559;28;20207;-81
2023/08/17 05:44:52;;;;;;;12.23;11.20;;;;;;;19.96;100.00;99610.84;5091910;28;20248;-81
2023/08/17 05:47:21;;;;;;;12.40;11.30;;;;;;;20.07;100.00;99609.66;5101855;28;20656;-81
2023/08/17 05:49:48;;;;;;;11.33;10.33;;;;;;;20.14;100.00;99610.16;5095192;28;20194;-81
2023/08/17 05:52:16;;;;;;;12.80;11.80;;;;;;;20.23;100.00;99618.53;5091553;28;20284;-81
2023/08/17 05:54:45;;;;;;;11.65;10.70;;;;;;;20.31;100.00;99617.13;5088090;28;20205;-81
2023/08/17 05:57:12;;;;;;;12.40;11.43;;;;;;;20.40;100.00;99620.88;5092106;28;20614;-81
2023/08/17 05:59:40;;;;;;;11.83;10.90;;;;;;;20.54;100.00;99617.22;5100203;28;20207;-80
2023/08/17 06:02:07;;;;;;;11.68;10.85;;;;;;;20.63;100.00;99611.97;5090460;28;20278;-83
2023/08/17 06:04:35;;;;;;;11.57;10.68;;;;;;;20.75;100.00;99611.63;5092623;28;20186;-80
2023/08/17 06:07:04;;;;;;;12.35;11.25;;;;;;;20.84;100.00;99618.06;5100086;28;20204;-79
2023/08/17 06:09:32;;;;;;;11.98;10.95;;;;;;;20.93;100.00;99625.31;5096845;28;20191;-79
2023/08/17 06:11:59;;;;;;;12.23;11.20;;;;;;;20.93;100.00;99628.03;5096654;28;20200;-80
2023/08/17 06:14:27;;;;;;;11.50;10.63;;;;;;;20.97;100.00;99626.38;5099575;28;20683;-79
2023/08/17 06:16:55;;;;;;;11.77;10.85;;;;;;;20.96;100.00;99615.75;5092844;28;20203;-79
2023/08/17 06:19:23;;;;;;;11.95;10.95;;;;;;;21.03;100.00;99610.78;5092196;28;20295;-79
2023/08/17 06:21:50;;;;;;;11.57;10.60;;;;;;;21.22;100.00;99613.63;5083031;28;20189;-80
2023/08/17 06:24:18;;;;;;;11.43;10.52;;;;;;;21.34;100.00;99608.56;5087843;28;20227;-81
2023/08/17 06:26:45;;;;;;;12.05;11.15;;;;;;;21.33;100.00;99604.22;5100533;28;20231;-80
2023/08/17 06:29:12;;;;;;;13.00;10.85;;;;;;;21.31;100.00;99609.97;5097973;28;20196;-81
2023/08/17 06:31:39;;;;;;;12.20;11.18;;;;;;;21.23;100.00;99616.03;5098146;28;20191;-82
2023/08/17 06:34:07;;;;;;;12.52;11.40;;;;;;;20.96;100.00;99613.84;5104315;28;20224;-80
2023/08/17 06:36:38;;;;;;;11.95;11.00;;;;;;;20.94;100.00;99609.81;5093449;28;20257;-81
2023/08/17 06:39:05;;;;;;;16.27;11.35;;;;;;;20.91;100.00;99605.72;5099354;28;20222;-80
2023/08/17 06:41:32;;;;;;;12.55;11.35;;;;;;;20.91;100.00;99611.16;5098102;28;20620;-80
2023/08/17 06:44:00;;;;;;;12.65;11.43;;;;;;;20.93;100.00;99602.72;5075765;28;20201;-83
2023/08/17 06:46:28;;;;;;;12.80;11.65;;;;;;;21.01;100.00;99610.25;5099908;28;20216;-80
2023/08/17 06:48:55;;;;;;;13.02;11.73;;;;;;;21.05;100.00;99614.03;5103011;28;20195;-80
2023/08/17 06:51:23;;;;;;;12.23;10.98;;;;;;;21.15;100.00;99613.94;5090820;28;20184;-81
2023/08/17 06:53:52;;;;;;;13.63;12.07;;;;;;;21.22;100.00;99602.72;5095651;28;20201;-83
2023/08/17 06:56:20;;;;;;;12.65;11.52;;;;;;;21.35;100.00;99604.75;5095804;28;20283;-80
2023/08/17 06:58:48;;;;;;;13.20;11.88;;;;;;;21.46;100.00;99603.53;5092930;28;20266;-82
2023/08/17 07:01:16;;;;;;;12.63;11.57;;;;;;;21.61;100.00;99610.66;5090898;28;20220;-80
2023/08/17 07:03:43;;;;;;;13.18;11.88;;;;;;;21.84;100.00;99605.19;5095352;28;20200;-81
2023/08/17 07:06:11;;;;;;;12.27;11.27;;;;;;;22.02;100.00;99610.97;5092829;28;20281;-81
2023/08/17 07:08:38;;;;;;;12.85;11.70;;;;;;;22.14;100.00;99605.88;5101994;28;20203;-80
2023/08/17 07:11:08;;;;;;;12.15;11.25;;;;;;;22.16;100.00;99612.66;5099922;28;20251;-82
2023/08/17 07:13:36;;;;;;;12.70;11.45;;;;;;;22.34;100.00;99614.56;5099762;28;20213;-80
2023/08/17 07:16:04;;;;;;;11.85;10.95;;;;;;;22.53;100.00;99622.75;5103354;28;20188;-80
2023/08/17 07:18:31;;;;;;;11.48;10.48;;;;;;;22.68;100.00;99613.44;5092520;28;20219;-86
2023/08/17 07:20:58;;;;;;;11.43;10.30;;;;;;;22.93;100.00;99614.97;5103830;28;20195;-82
2023/08/17 07:23:25;;;;;;;11.18;10.25;;;;;;;23.05;100.00;99607.09;5097743;28;20197;-80
2023/08/17 07:25:52;;;;;;;11.48;10.48;;;;;;;23.21;100.00;99611.16;5098426;28;20192;-79
2023/08/17 07:28:19;;;;;;;10.73;9.48;;;;;;;23.40;100.00;99613.78;5091336;28;20222;-79
2023/08/17 07:30:46;;;;;;;11.10;9.98;;;;;;;23.62;100.00;99616.63;5097437;28;20242;-80
2023/08/17 07:33:13;;;;;;;11.00;10.10;;;;;;;23.82;100.00;99615.41;5093336;28;20236;-80
2023/08/17 07:35:40;;;;;;;9.82;9.02;;;;;;;23.98;100.00;99617.47;5083781;28;20196;-80
2023/08/17 07:38:08;;;;;;;10.43;9.43;;;;;;;23.91;100.00;99608.88;5089313;28;20208;-79
2023/08/17 07:40:36;;;;;;;10.10;9.20;;;;;;;24.01;100.00;99613.31;5089576;28;20630;-80
2023/08/17 07:43:03;;;;;;;10.95;10.00;;;;;;;23.94;100.00;99621.13;5087929;28;20202;-80
2023/08/17 07:45:31;;;;;;;9.77;9.07;;;;;;;24.28;100.00;99612.44;5090865;28;20714;-79
2023/08/17 07:47:58;;;;;;;12.10;11.00;;;;;;;24.28;100.00;99612.44;5095745;28;20343;-80
2023/08/17 07:50:25;;;;;;;12.00;11.00;;;;;;;24.37;100.00;99611.41;5102002;28;20275;-80
2023/08/17 07:52:53;;;;;;;11.27;10.40;;;;;;;24.54;100.00;99618.94;5094210;28;20194;-80
2023/08/17 07:55:20;;;;;;;10.52;9.82;;;;;;;24.65;100.00;99617.56;5098208;28;20214;-81
2023/08/17 07:57:48;;;;;;;11.68;10.60;;;;;;;24.68;100.00;99624.34;5106624;28;20801;-80
2023/08/17 08:00:16;;;;;;;11.40;10.50;;;;;;;24.69;100.00;99612.25;5091883;28;20654;-80
2023/08/17 08:02:45;;;;;;;12.10;10.95;;;;;;;24.79;100.00;99621.03;5086868;28;20203;-79
2023/08/17 08:05:14;;;;;;;11.38;10.43;;;;;;;25.05;100.00;99618.47;5100837;28;20198;-80
2023/08/17 08:07:42;;;;;;;11.32;10.43;;;;;;;25.22;100.00;99614.97;5101104;28;20198;-81
2023/08/17 08:10:10;;;;;;;11.45;10.50;;;;;;;25.36;100.00;99611.00;5100600;28;20219;-80
2023/08/17 08:12:38;;;;;;;10.05;9.05;;;;;;;25.27;100.00;99601.94;5108746;28;20191;-80
2023/08/17 08:15:06;;;;;;;8.55;7.80;;;;;;;25.52;100.00;99605.91;5093773;28;20184;-80
2023/08/17 08:17:33;;;;;;;9.05;8.25;;;;;;;25.61;100.00;99606.78;5093664;28;20191;-81
2023/08/17 08:20:01;;;;;;;8.52;7.68;;;;;;;25.68;100.00;99607.09;5102054;28;20702;-79
2023/08/17 08:22:29;;;;;;;8.55;7.80;;;;;;;25.70;100.00;99609.53;5081250;28;20582;-80
2023/08/17 08:24:57;;;;;;;8.38;7.75;;;;;;;25.84;100.00;99607.44;5079977;28;20193;-81
2023/08/17 08:27:24;;;;;;;9.30;8.60;;;;;;;25.75;100.00;99610.19;5097856;28;20177;-80
2023/08/17 08:29:52;;;;;;;9.20;8.38;;;;;;;25.54;100.00;99614.66;5093615;28;20719;-80
2023/08/17 08:32:19;;;;;;;8.60;7.70;;;;;;;25.58;100.00;99615.63;5092236;28;20239;-80
2023/08/17 08:34:47;;;;;;;8.57;7.88;;;;;;;25.61;100.00;99615.00;5110457;28;20275;-80
2023/08/17 08:37:15;;;;;;;9.20;8.50;;;;;;;25.73;100.00;99606.13;5086784;28;20710;-81
2023/08/17 08:39:50;;;;;;;8.75;7.88;;;;;;;25.89;100.00;99606.50;5090956;28;20209;-80
2023/08/17 08:42:21;;;;;;;8.70;8.10;;;;;;;25.94;100.00;99600.84;5093372;28;20303;-80
2023/08/17 08:44:51;;;;;;;9.02;8.23;;;;;;;26.11;100.00;99601.66;5092297;28;20204;-80
2023/08/17 08:47:19;;;;;;;8.00;7.50;;;;;;;26.26;100.00;99606.69;5107262;28;20278;-80
2023/08/17 08:50:02;;;;;;;8.35;7.65;;;;;;;26.69;100.00;99600.31;5089960;28;20196;-82
2023/08/17 08:52:42;;;;;;;7.80;7.20;;;;;;;27.20;100.00;99606.84;5093842;28;20197;-80
2023/08/17 08:55:16;;;;;;;9.65;7.78;;;;;;;27.49;100.00;99599.44;5100769;28;20196;-82
2023/08/17 08:57:44;;;;;;;8.77;7.82;;;;;;;27.77;100.00;99597.00;5088261;28;20570;-81
2023/08/17 09:00:18;;;;;;;8.55;7.85;;;;;;;28.19;100.00;99594.28;5081138;28;20298;-81
2023/08/17 09:02:46;;;;;;;9.35;8.48;;;;;;;28.17;100.00;99602.09;5092031;28;20707;-81
2023/08/17 09:05:14;;;;;;;8.35;7.65;;;;;;;28.42;100.00;99596.34;5075822;28;20193;-81
2023/08/17 09:07:42;;;;;;;11.07;8.13;;;;;;;28.64;100.00;99595.16;5083841;28;20264;-81
2023/08/17 09:10:11;;;;;;;9.13;8.15;;;;;;;28.76;100.00;99592.47;5105038;28;20192;-81
2023/08/17 09:12:40;;;;;;;10.85;8.90;;;;;;;28.64;100.00;99586.09;5093106;28;20226;-81
2023/08/17 09:15:09;;;;;;;9.68;8.73;;;;;;;28.32;100.00;99594.00;5075520;28;20209;-81
2023/08/17 09:17:36;;;;;;;10.23;8.50;;;;;;;28.58;100.00;99588.25;5076610;28;20647;-81
2023/08/17 09:20:04;;;;;;;9.07;8.23;;;;;;;28.79;100.00;99585.44;5073916;28;20259;-82
2023/08/17 09:22:41;;;;;;;9.85;8.50;;;;;;;28.44;100.00;99582.22;5113271;28;20202;-81
2023/08/17 09:25:11;;;;;;;8.75;8.05;;;;;;;28.34;100.00;99579.88;5108925;28;20200;-82
2023/08/17 09:27:38;;;;;;;7.88;7.18;;;;;;;28.64;100.00;99584.16;5091982;28;20707;-81
2023/08/17 09:30:10;;;;;;;8.05;7.45;;;;;;;28.81;100.00;99581.22;5082055;28;20195;-82
2023/08/17 09:32:38;;;;;;;6.53;6.13;;;;;;;28.97;100.00;99577.81;5092831;28;20271;-81
2023/08/17 09:35:09;;;;;;;7.15;6.53;;;;;;;29.02;100.00;99580.34;5092935;28;20344;-81
2023/08/17 09:37:36;;;;;;;7.97;7.20;;;;;;;28.45;100.00;99570.06;5093090;28;20188;-81
2023/08/17 09:40:05;;;;;;;7.80;7.20;;;;;;;28.36;100.00;99567.41;5092929;28;20632;-81
2023/08/17 09:42:35;;;;;;;7.72;7.03;;;;;;;28.30;100.00;99562.44;5092962;28;20198;-81
2023/08/17 09:45:03;;;;;;;7.05;6.45;;;;;;;28.27;100.00;99566.69;5091662;28;20197;-82
2023/08/17 09:47:32;;;;;;;7.88;7.28;;;;;;;27.33;100.00;99565.34;5092762;28;20526;-81
2023/08/17 09:50:00;;;;;;;7.43;6.93;;;;;;;27.05;100.00;99566.94;5092862;28;20658;-82
2023/08/17 09:52:27;;;;;;;7.90;7.30;;;;;;;27.52;100.00;99560.28;5091899;28;20279;-80
2023/08/17 09:54:55;;;;;;;7.60;7.10;;;;;;;27.26;100.00;99562.31;5096018;28;20219;-79
2023/08/17 09:57:23;;;;;;;6.93;6.38;;;;;;;26.68;100.00;99563.00;5096204;28;20192;-81
2023/08/17 09:59:53;;;;;;;6.20;5.70;;;;;;;26.86;100.00;99561.03;5091493;28;20240;-80
2023/08/17 10:02:23;;;;;;;6.97;6.10;;;;;;;26.96;100.00;99561.50;5095684;28;20546;-81
2023/08/17 10:04:53;;;;;;;7.20;5.50;;;;;;;26.83;100.00;99558.94;5093669;28;20238;-80
2023/08/17 10:07:23;;;;;;;6.00;5.57;;;;;;;27.46;100.00;99550.56;5108095;28;20200;-80
2023/08/17 10:10:05;;;;;;;6.43;5.85;;;;;;;27.68;100.00;99549.47;5092819;28;20192;-81
2023/08/17 10:12:36;;;;;;;6.35;5.82;;;;;;;27.40;100.00;99548.31;5091658;28;20176;-80
2023/08/17 10:15:08;;;;;;;6.32;5.53;;;;;;;27.84;100.00;99542.22;5080260;28;20270;-82
2023/08/17 10:17:53;;;;;;;6.15;5.68;;;;;;;27.97;100.00;99543.09;5077302;28;20218;-81
2023/08/17 10:20:22;;;;;;;5.78;5.38;;;;;;;28.20;100.00;99532.53;5096225;28;20294;-80
2023/08/17 10:22:59;;;;;;;6.45;5.82;;;;;;;28.45;100.00;99526.78;5112979;28;20187;-82
2023/08/17 10:25:27;;;;;;;5.78;5.38;;;;;;;27.98;100.00;99529.00;5112972;28;20187;-82
2023/08/17 10:27:55;;;;;;;5.68;5.05;;;;;;;27.93;100.00;99528.38;5112612;28;20203;-83
2023/08/17 10:30:27;;;;;;;5.55;5.15;;;;;;;27.89;100.00;99528.25;5091439;28;20212;-80
2023/08/17 10:32:54;;;;;;;6.20;5.60;;;;;;;27.53;100.00;99515.06;5091948;28;20229;-81
2023/08/17 10:35:23;;;;;;;7.35;5.30;;;;;;;27.25;100.00;99532.41;5092277;28;20190;-82
2023/08/17 10:37:51;;;;;;;5.55;5.15;;;;;;;27.36;100.00;99528.13;5094484;28;20189;-80
2023/08/17 10:40:26;;;;;;;6.13;5.40;;;;;;;26.64;100.00;99529.84;5096004;28;20204;-82
2023/08/17 10:42:57;;;;;;;5.63;5.18;;;;;;;26.97;100.00;99524.59;5114205;28;20664;-80
2023/08/17 10:45:32;;;;;;;6.00;5.50;;;;;;;27.12;100.00;99529.53;5094787;28;20204;-82
2023/08/17 10:48:09;;;;;;;5.90;5.40;;;;;;;27.14;100.00;99529.22;5106857;28;20210;-79
2023/08/17 10:50:38;;;;;;;6.22;5.57;;;;;;;27.46;100.00;99523.03;5100501;28;20194;-80
2023/08/17 10:53:12;;;;;;;5.38;4.90;;;;;;;27.58;100.00;99511.31;5095921;28;20195;-81
2023/08/17 10:55:41;;;;;;;5.97;5.38;;;;;;;27.87;100.00;99519.53;5095945;28;20192;-81
2023/08/17 10:58:08;;;;;;;5.55;5.15;;;;;;;28.02;100.00;99509.84;5097915;28;20191;-81
2023/08/17 11:00:43;;;;;;;6.72;5.30;;;;;;;27.84;100.00;99511.13;5102529;28;20689;-81
2023/08/17 11:03:20;;;;;;;5.85;5.25;;;;;;;27.78;100.00;99506.97;5074507;28;20223;-82
2023/08/17 11:05:53;;;;;;;5.97;5.43;;;;;;;27.89;100.00;99508.19;5074376;28;20575;-80
2023/08/17 11:08:50;;;;;;;6.30;5.70;;;;;;;27.96;100.00;99514.75;5091817;28;20619;-81
2023/08/17 11:11:19;;;;;;;5.82;5.30;;;;;;;28.13;100.00;99511.06;5094411;28;20188;-80
2023/08/17 11:13:47;;;;;;;5.78;5.20;;;;;;;28.08;100.00;99510.44;5095438;28;20184;-80
2023/08/17 11:16:19;;;;;;;5.78;5.38;;;;;;;28.33;100.00;99517.66;5094441;28;20602;-82
2023/08/17 11:18:49;;;;;;;6.32;5.45;;;;;;;27.93;100.00;99507.16;5109793;28;20565;-82
2023/08/17 11:21:19;;;;;;;5.55;5.07;;;;;;;27.47;100.00;99504.59;5115882;28;20188;-80